sensor_id;sensor_type;location;lat;lon;timestamp;pressure;altitude;pressure_sealevel;temperature;humidity
72587;BME280;60621;49.576;11.024;2023-03-25T00:00:56;97640.50;;;10.25;70.43
72587;BME280;60621;49.576;11.024;2023-03-25T00:02:00;97637.53;;;10.27;70.36
72587;BME280;60621;49.576;11.024;2023-03-25T00:03:02;97638.28;;;10.27;70.70
72587;BME280;60621;49.576;11.024;2023-03-25T00:04:04;97636.03;;;10.29;70.60
72587;BME280;60621;49.576;11.024;2023-03-25T00:05:06;97627.75;;;10.31;70.82
72587;BME280;60621;49.576;11.024;2023-03-25T00:06:09;97627.38;;;10.32;70.34
72587;BME280;60621;49.576;11.024;2023-03-25T00:07:12;97624.28;;;10.23;70.46
72587;BME280;60621;49.576;11.024;2023-03-25T00:08:13;97620.56;;;10.24;70.74
72587;BME280;60621;49.576;11.024;2023-03-25T00:09:15;97625.47;;;10.29;70.83
72587;BME280;60621;49.576;11.024;2023-03-25T00:10:18;97624.34;;;10.30;70.50
72587;BME280;60621;49.576;11.024;2023-03-25T00:11:20;97616.88;;;10.36;70.30
72587;BME280;60621;49.576;11.024;2023-03-25T00:12:22;97617.63;;;10.36;69.97
72587;BME280;60621;49.576;11.024;2023-03-25T00:13:24;97619.00;;;10.19;70.35
72587;BME280;60621;49.576;11.024;2023-03-25T00:14:27;97617.44;;;10.11;70.33
72587;BME280;60621;49.576;11.024;2023-03-25T00:15:29;97619.38;;;10.18;70.36
72587;BME280;60621;49.576;11.024;2023-03-25T00:16:34;97615.56;;;10.15;70.75
72587;BME280;60621;49.576;11.024;2023-03-25T00:17:37;97605.78;;;10.12;70.78
72587;BME280;60621;49.576;11.024;2023-03-25T00:18:40;97605.50;;;10.24;70.40
72587;BME280;60621;49.576;11.024;2023-03-25T00:19:41;97606.28;;;10.29;70.10
72587;BME280;60621;49.576;11.024;2023-03-25T00:20:43;97602.91;;;10.32;70.02
72587;BME280;60621;49.576;11.024;2023-03-25T00:21:46;97603.69;;;10.36;70.33
72587;BME280;60621;49.576;11.024;2023-03-25T00:22:50;97603.63;;;10.29;69.95
72587;BME280;60621;49.576;11.024;2023-03-25T00:23:52;97604.34;;;10.22;70.14
72587;BME280;60621;49.576;11.024;2023-03-25T00:24:53;97600.19;;;10.21;70.31
72587;BME280;60621;49.576;11.024;2023-03-25T00:25:55;97600.63;;;10.27;70.36
72587;BME280;60621;49.576;11.024;2023-03-25T00:27:00;97600.94;;;10.21;70.74
72587;BME280;60621;49.576;11.024;2023-03-25T00:28:02;97598.69;;;10.23;70.37
72587;BME280;60621;49.576;11.024;2023-03-25T00:29:03;97596.44;;;10.22;70.75
72587;BME280;60621;49.576;11.024;2023-03-25T00:30:05;97597.59;;;10.24;70.63
72587;BME280;60621;49.576;11.024;2023-03-25T00:31:10;97600.97;;;10.25;70.43
72587;BME280;60621;49.576;11.024;2023-03-25T00:32:14;97603.25;;;10.30;70.38
72587;BME280;60621;49.576;11.024;2023-03-25T00:33:15;97593.91;;;10.36;69.87
72587;BME280;60621;49.576;11.024;2023-03-25T00:34:18;97595.78;;;10.36;70.11
72587;BME280;60621;49.576;11.024;2023-03-25T00:35:21;97596.53;;;10.36;70.21
72587;BME280;60621;49.576;11.024;2023-03-25T00:36:24;97600.69;;;10.41;70.45
72587;BME280;60621;49.576;11.024;2023-03-25T00:37:26;97584.50;;;10.42;70.05
72587;BME280;60621;49.576;11.024;2023-03-25T00:38:30;97584.91;;;10.44;70.13
72587;BME280;60621;49.576;11.024;2023-03-25T00:39:36;97584.91;;;10.44;70.40
72587;BME280;60621;49.576;11.024;2023-03-25T00:40:38;97586.75;;;10.40;70.43
72587;BME280;60621;49.576;11.024;2023-03-25T00:41:40;97583.38;;;10.40;70.21
72587;BME280;60621;49.576;11.024;2023-03-25T00:42:43;97578.09;;;10.43;70.12
72587;BME280;60621;49.576;11.024;2023-03-25T00:43:51;97584.91;;;10.48;69.92
72587;BME280;60621;49.576;11.024;2023-03-25T00:44:53;97582.25;;;10.48;69.82
72587;BME280;60621;49.576;11.024;2023-03-25T00:45:55;97580.41;;;10.52;69.92
72587;BME280;60621;49.576;11.024;2023-03-25T00:46:57;97572.44;;;10.41;69.80
72587;BME280;60621;49.576;11.024;2023-03-25T00:47:59;97571.66;;;10.37;70.37
72587;BME280;60621;49.576;11.024;2023-03-25T00:49:00;97570.94;;;10.40;70.16
72587;BME280;60621;49.576;11.024;2023-03-25T00:50:03;97579.97;;;10.43;70.46
72587;BME280;60621;49.576;11.024;2023-03-25T00:51:05;97573.19;;;10.42;70.52
72587;BME280;60621;49.576;11.024;2023-03-25T00:52:10;97571.28;;;10.35;70.51
72587;BME280;60621;49.576;11.024;2023-03-25T00:53:12;97560.78;;;10.42;70.37
72587;BME280;60621;49.576;11.024;2023-03-25T00:54:14;97563.81;;;10.48;69.92
72587;BME280;60621;49.576;11.024;2023-03-25T00:55:17;97560.03;;;10.49;69.85
72587;BME280;60621;49.576;11.024;2023-03-25T00:56:22;97563.44;;;10.46;69.92
72587;BME280;60621;49.576;11.024;2023-03-25T00:57:24;97561.53;;;10.43;70.23
72587;BME280;60621;49.576;11.024;2023-03-25T00:58:26;97573.19;;;10.42;70.66
72587;BME280;60621;49.576;11.024;2023-03-25T00:59:27;97570.94;;;10.44;70.63
72587;BME280;60621;49.576;11.024;2023-03-25T01:00:29;97584.91;;;10.44;71.15
72587;BME280;60621;49.576;11.024;2023-03-25T01:01:30;97589.03;;;10.45;71.96
72587;BME280;60621;49.576;11.024;2023-03-25T01:02:33;97590.50;;;10.36;72.64
72587;BME280;60621;49.576;11.024;2023-03-25T01:03:34;97591.22;;;10.33;72.87
72587;BME280;60621;49.576;11.024;2023-03-25T01:04:38;97597.22;;;10.30;74.08
72587;BME280;60621;49.576;11.024;2023-03-25T01:05:43;97599.13;;;10.25;74.58
72587;BME280;60621;49.576;11.024;2023-03-25T01:06:45;97607.41;;;10.28;74.62
72587;BME280;60621;49.576;11.024;2023-03-25T01:07:52;97586.34;;;10.31;75.12
72587;BME280;60621;49.576;11.024;2023-03-25T01:08:58;97589.28;;;10.22;74.89
72587;BME280;60621;49.576;11.024;2023-03-25T01:09:59;97592.25;;;10.17;75.59
72587;BME280;60621;49.576;11.024;2023-03-25T01:11:01;97583.09;;;10.00;76.52
72587;BME280;60621;49.576;11.024;2023-03-25T01:12:03;97580.03;;;9.91;76.91
72587;BME280;60621;49.576;11.024;2023-03-25T01:13:04;97581.91;;;9.91;77.36
72587;BME280;60621;49.576;11.024;2023-03-25T01:14:10;97585.72;;;9.93;77.71
72587;BME280;60621;49.576;11.024;2023-03-25T01:15:13;97584.47;;;9.80;78.10
72587;BME280;60621;49.576;11.024;2023-03-25T01:16:14;97580.66;;;9.70;78.91
72587;BME280;60621;49.576;11.024;2023-03-25T01:17:16;97584.38;;;9.66;79.26
72587;BME280;60621;49.576;11.024;2023-03-25T01:18:17;97577.50;;;9.51;79.97
72587;BME280;60621;49.576;11.024;2023-03-25T01:19:19;97573.69;;;9.48;80.58
72587;BME280;60621;49.576;11.024;2023-03-25T01:20:21;97571.81;;;9.48;80.63
72587;BME280;60621;49.576;11.024;2023-03-25T01:21:22;97573.03;;;9.55;80.45
72587;BME280;60621;49.576;11.024;2023-03-25T01:22:24;97570.00;;;9.56;79.69
72587;BME280;60621;49.576;11.024;2023-03-25T01:23:25;97571.44;;;9.46;80.48
72587;BME280;60621;49.576;11.024;2023-03-25T01:24:27;97566.22;;;9.50;80.30
72587;BME280;60621;49.576;11.024;2023-03-25T01:25:28;97565.47;;;9.53;79.92
72587;BME280;60621;49.576;11.024;2023-03-25T01:26:30;97566.63;;;9.56;79.98
72587;BME280;60621;49.576;11.024;2023-03-25T01:27:32;97562.13;;;9.56;79.95
72587;BME280;60621;49.576;11.024;2023-03-25T01:28:33;97553.38;;;9.48;80.48
72587;BME280;60621;49.576;11.024;2023-03-25T01:29:35;97562.13;;;9.56;79.84
72587;BME280;60621;49.576;11.024;2023-03-25T01:30:36;97556.84;;;9.56;79.86
72587;BME280;60621;49.576;11.024;2023-03-25T01:31:38;97566.66;;;9.59;79.65
72587;BME280;60621;49.576;11.024;2023-03-25T01:32:39;97566.66;;;9.59;79.91
72587;BME280;60621;49.576;11.024;2023-03-25T01:33:41;97572.66;;;9.56;79.88
72587;BME280;60621;49.576;11.024;2023-03-25T01:34:43;97564.78;;;9.63;79.43
72587;BME280;60621;49.576;11.024;2023-03-25T01:35:44;97574.88;;;9.54;79.70
72587;BME280;60621;49.576;11.024;2023-03-25T01:36:46;97571.06;;;9.48;79.51
72587;BME280;60621;49.576;11.024;2023-03-25T01:37:48;97565.75;;;9.44;79.56
72587;BME280;60621;49.576;11.024;2023-03-25T01:38:50;97566.53;;;9.45;79.55
72587;BME280;60621;49.576;11.024;2023-03-25T01:39:52;97563.47;;;9.39;79.53
72587;BME280;60621;49.576;11.024;2023-03-25T01:40:54;97562.72;;;9.35;79.89
72587;BME280;60621;49.576;11.024;2023-03-25T01:41:55;97557.78;;;9.34;79.69
72587;BME280;60621;49.576;11.024;2023-03-25T01:42:57;97554.06;;;9.38;79.55
72587;BME280;60621;49.576;11.024;2023-03-25T01:45:09;97554.47;;;9.44;79.10
72587;BME280;60621;49.576;11.024;2023-03-25T01:45:31;97550.34;;;9.43;79.39
72587;BME280;60621;49.576;11.024;2023-03-25T01:46:37;97550.31;;;9.36;79.22
72587;BME280;60621;49.576;11.024;2023-03-25T01:47:40;97545.28;;;9.23;79.41
72587;BME280;60621;49.576;11.024;2023-03-25T01:48:43;97550.59;;;9.27;79.60
72587;BME280;60621;49.576;11.024;2023-03-25T01:49:45;97554.03;;;9.31;79.30
72587;BME280;60621;49.576;11.024;2023-03-25T01:50:53;97553.22;;;9.27;78.77
72587;BME280;60621;49.576;11.024;2023-03-25T01:52:02;97544.47;;;9.12;79.28
72587;BME280;60621;49.576;11.024;2023-03-25T01:53:05;97560.19;;;9.09;79.26
72587;BME280;60621;49.576;11.024;2023-03-25T01:54:08;97554.66;;;9.17;79.24
72587;BME280;60621;49.576;11.024;2023-03-25T01:55:09;97558.31;;;9.09;79.19
72587;BME280;60621;49.576;11.024;2023-03-25T01:56:15;97561.00;;;9.13;79.17
72587;BME280;60621;49.576;11.024;2023-03-25T01:57:21;97559.44;;;9.08;79.95
72587;BME280;60621;49.576;11.024;2023-03-25T01:58:24;97561.31;;;9.08;79.77
72587;BME280;60621;49.576;11.024;2023-03-25T01:59:27;97563.63;;;9.13;79.27
72587;BME280;60621;49.576;11.024;2023-03-25T02:00:30;97560.19;;;9.09;78.87
72587;BME280;60621;49.576;11.024;2023-03-25T02:01:32;97562.38;;;9.00;79.52
72587;BME280;60621;49.576;11.024;2023-03-25T02:02:34;97557.97;;;9.11;78.90
72587;BME280;60621;49.576;11.024;2023-03-25T02:03:41;97562.84;;;9.09;79.31
72587;BME280;60621;49.576;11.024;2023-03-25T02:04:55;97559.44;;;9.08;79.15
72587;BME280;60621;49.576;11.024;2023-03-25T02:07:05;97555.78;;;9.16;79.12
72587;BME280;60621;49.576;11.024;2023-03-25T02:08:08;97555.81;;;9.23;78.58
72587;BME280;60621;49.576;11.024;2023-03-25T02:09:12;97552.91;;;9.32;78.23
72587;BME280;60621;49.576;11.024;2023-03-25T02:10:16;97547.66;;;9.36;78.01
72587;BME280;60621;49.576;11.024;2023-03-25T02:11:17;97545.75;;;9.33;77.96
72587;BME280;60621;49.576;11.024;2023-03-25T02:12:19;97546.81;;;9.24;77.59
72587;BME280;60621;49.576;11.024;2023-03-25T02:13:21;97547.19;;;9.23;77.68
72587;BME280;60621;49.576;11.024;2023-03-25T02:14:26;97547.13;;;9.19;78.40
72587;BME280;60621;49.576;11.024;2023-03-25T02:15:37;97536.97;;;9.18;77.69
72587;BME280;60621;49.576;11.024;2023-03-25T02:17:37;97543.66;;;9.08;78.23
72587;BME280;60621;49.576;11.024;2023-03-25T02:18:24;97538.81;;;9.14;78.30
72587;BME280;60621;49.576;11.024;2023-03-25T02:21:12;97544.13;;;9.17;78.23
72587;BME280;60621;49.576;11.024;2023-03-25T02:27:06;97542.25;;;9.18;77.81
72587;BME280;60621;49.576;11.024;2023-03-25T02:30:46;97543.41;;;9.24;76.93
72587;BME280;60621;49.576;11.024;2023-03-25T02:40:07;97565.47;;;9.09;77.06
72587;BME280;60621;49.576;11.024;2023-03-25T02:41:40;97570.31;;;9.07;76.88
72587;BME280;60621;49.576;11.024;2023-03-25T02:43:09;97560.59;;;9.11;76.49
72587;BME280;60621;49.576;11.024;2023-03-25T02:45:54;97570.06;;;9.19;76.08
72587;BME280;60621;49.576;11.024;2023-03-25T02:47:02;97572.38;;;9.24;75.66
72587;BME280;60621;49.576;11.024;2023-03-25T02:48:11;97567.91;;;9.28;75.08
72587;BME280;60621;49.576;11.024;2023-03-25T02:49:24;97570.06;;;9.19;74.74
72587;BME280;60621;49.576;11.024;2023-03-25T02:50:33;97564.66;;;9.05;75.58
72587;BME280;60621;49.576;11.024;2023-03-25T02:51:40;97565.84;;;9.07;75.15
72587;BME280;60621;49.576;11.024;2023-03-25T02:52:54;97571.53;;;9.13;75.22
72587;BME280;60621;49.576;11.024;2023-03-25T02:54:02;97571.16;;;9.14;74.72
72587;BME280;60621;49.576;11.024;2023-03-25T02:55:10;97569.22;;;9.11;74.38
72587;BME280;60621;49.576;11.024;2023-03-25T02:56:15;97568.16;;;9.16;73.35
72587;BME280;60621;49.576;11.024;2023-03-25T02:57:18;97568.88;;;9.13;73.75
72587;BME280;60621;49.576;11.024;2023-03-25T02:58:23;97570.06;;;9.19;74.04
72587;BME280;60621;49.576;11.024;2023-03-25T02:59:27;97564.72;;;9.08;73.73
72587;BME280;60621;49.576;11.024;2023-03-25T03:00:30;97567.75;;;9.14;73.74
72587;BME280;60621;49.576;11.024;2023-03-25T03:01:32;97566.66;;;9.15;74.27
72587;BME280;60621;49.576;11.024;2023-03-25T03:02:35;97564.81;;;9.19;74.12
72587;BME280;60621;49.576;11.024;2023-03-25T03:03:37;97564.44;;;9.20;74.53
72587;BME280;60621;49.576;11.024;2023-03-25T03:04:54;97565.97;;;9.21;74.46
72587;BME280;60621;49.576;11.024;2023-03-25T03:06:01;97567.09;;;9.24;74.03
72587;BME280;60621;49.576;11.024;2023-03-25T03:07:03;97564.00;;;9.15;74.17
72587;BME280;60621;49.576;11.024;2023-03-25T03:09:44;97565.84;;;9.07;74.23
72587;BME280;60621;49.576;11.024;2023-03-25T03:11:04;97567.66;;;9.03;73.94
72587;BME280;60621;49.576;11.024;2023-03-25T03:12:20;97567.34;;;9.08;73.35
72587;BME280;60621;49.576;11.024;2023-03-25T03:17:36;97555.69;;;9.09;72.27
72587;BME280;60621;49.576;11.024;2023-03-25T03:18:50;97558.31;;;9.09;72.72
72587;BME280;60621;49.576;11.024;2023-03-25T03:20:16;97557.97;;;9.11;73.02
72587;BME280;60621;49.576;11.024;2023-03-25T03:22:50;97551.47;;;9.01;73.59
72587;BME280;60621;49.576;11.024;2023-03-25T03:24:12;97557.50;;;9.02;73.06
72587;BME280;60621;49.576;11.024;2023-03-25T03:26:48;97556.22;;;8.85;74.42
72587;BME280;60621;49.576;11.024;2023-03-25T03:28:24;97549.13;;;8.92;73.48
72587;BME280;60621;49.576;11.024;2023-03-25T03:29:35;97556.78;;;9.05;73.65
72587;BME280;60621;49.576;11.024;2023-03-25T03:30:45;97554.94;;;9.09;73.01
72587;BME280;60621;49.576;11.024;2023-03-25T03:31:53;97557.63;;;9.12;72.93
72587;BME280;60621;49.576;11.024;2023-03-25T03:34:47;97559.84;;;9.10;72.98
72587;BME280;60621;49.576;11.024;2023-03-25T03:35:57;97563.59;;;9.09;73.07
72587;BME280;60621;49.576;11.024;2023-03-25T03:37:03;97556.44;;;9.10;72.73
72587;BME280;60621;49.576;11.024;2023-03-25T03:38:09;97556.53;;;9.17;72.57
72587;BME280;60621;49.576;11.024;2023-03-25T03:39:18;97556.53;;;9.20;72.36
72587;BME280;60621;49.576;11.024;2023-03-25T03:40:22;97553.91;;;9.17;72.46
72587;BME280;60621;49.576;11.024;2023-03-25T03:41:26;97558.41;;;9.16;72.45
72587;BME280;60621;49.576;11.024;2023-03-25T03:43:06;97562.53;;;9.17;72.99
72587;BME280;60621;49.576;11.024;2023-03-25T03:44:13;97559.16;;;9.17;72.96
72587;BME280;60621;49.576;11.024;2023-03-25T03:45:19;97555.41;;;9.18;72.34
72587;BME280;60621;49.576;11.024;2023-03-25T03:46:26;97556.22;;;9.26;72.27
72587;BME280;60621;49.576;11.024;2023-03-25T03:47:32;97564.56;;;9.31;71.69
72587;BME280;60621;49.576;11.024;2023-03-25T03:48:41;97561.13;;;9.27;71.60
72587;BME280;60621;49.576;11.024;2023-03-25T03:50:13;97563.38;;;9.29;71.50
72587;BME280;60621;49.576;11.024;2023-03-25T03:51:27;97559.69;;;9.37;71.81
72587;BME280;60621;49.576;11.024;2023-03-25T03:52:35;97565.31;;;9.32;71.39
72587;BME280;60621;49.576;11.024;2023-03-25T03:53:45;97564.81;;;9.19;72.04
72587;BME280;60621;49.576;11.024;2023-03-25T03:54:51;97564.88;;;9.26;71.88
72587;BME280;60621;49.576;11.024;2023-03-25T03:56:06;97564.50;;;9.28;71.63
72587;BME280;60621;49.576;11.024;2023-03-25T03:57:19;97561.84;;;9.24;72.18
72587;BME280;60621;49.576;11.024;2023-03-25T03:58:25;97564.09;;;9.26;72.23
72587;BME280;60621;49.576;11.024;2023-03-25T04:00:03;97565.22;;;9.24;72.24
72587;BME280;60621;49.576;11.024;2023-03-25T04:01:20;97567.53;;;9.30;72.34
72587;BME280;60621;49.576;11.024;2023-03-25T04:02:48;97557.81;;;9.37;71.74
72587;BME280;60621;49.576;11.024;2023-03-25T04:03:55;97559.28;;;9.35;71.30
72587;BME280;60621;49.576;11.024;2023-03-25T04:04:58;97569.47;;;9.36;71.69
72587;BME280;60621;49.576;11.024;2023-03-25T04:06:08;97564.91;;;9.30;71.37
72587;BME280;60621;49.576;11.024;2023-03-25T04:07:16;97566.78;;;9.29;72.02
72587;BME280;60621;49.576;11.024;2023-03-25T04:08:28;97566.66;;;9.15;72.29
72587;BME280;60621;49.576;11.024;2023-03-25T04:10:51;97586.91;;;9.11;72.46
72587;BME280;60621;49.576;11.024;2023-03-25T04:12:18;97595.47;;;9.04;73.47
72587;BME280;60621;49.576;11.024;2023-03-25T04:13:22;97587.50;;;8.97;74.78
72587;BME280;60621;49.576;11.024;2023-03-25T04:14:24;97579.94;;;8.92;75.69
72587;BME280;60621;49.576;11.024;2023-03-25T04:15:26;97589.00;;;8.94;75.96
72587;BME280;60621;49.576;11.024;2023-03-25T04:16:27;97591.94;;;8.89;75.47
72587;BME280;60621;49.576;11.024;2023-03-25T04:17:29;97597.25;;;8.93;75.45
72587;BME280;60621;49.576;11.024;2023-03-25T04:18:33;97597.66;;;8.95;75.14
72587;BME280;60621;49.576;11.024;2023-03-25T04:19:35;97590.13;;;8.93;75.53
72587;BME280;60621;49.576;11.024;2023-03-25T04:20:37;97596.13;;;8.94;75.11
72587;BME280;60621;49.576;11.024;2023-03-25T04:21:45;97583.00;;;8.64;75.55
72587;BME280;60621;49.576;11.024;2023-03-25T04:22:51;97580.09;;;8.72;74.99
72587;BME280;60621;49.576;11.024;2023-03-25T04:23:52;97589.56;;;8.77;75.25
72587;BME280;60621;49.576;11.024;2023-03-25T04:24:54;97582.41;;;8.74;75.52
72587;BME280;60621;49.576;11.024;2023-03-25T04:25:56;97573.28;;;8.64;75.38
72587;BME280;60621;49.576;11.024;2023-03-25T04:26:59;97583.25;;;8.52;76.12
72587;BME280;60621;49.576;11.024;2023-03-25T04:28:03;97584.28;;;8.43;77.18
72587;BME280;60621;49.576;11.024;2023-03-25T04:29:05;97578.63;;;8.41;76.95
72587;BME280;60621;49.576;11.024;2023-03-25T04:30:09;97585.00;;;8.40;77.00
72587;BME280;60621;49.576;11.024;2023-03-25T04:31:14;97586.91;;;8.43;76.96
72587;BME280;60621;49.576;11.024;2023-03-25T04:32:16;97585.84;;;8.48;76.93
72587;BME280;60621;49.576;11.024;2023-03-25T04:33:18;97581.06;;;8.57;76.69
72587;BME280;60621;49.576;11.024;2023-03-25T04:34:21;97581.34;;;8.49;76.43
72587;BME280;60621;49.576;11.024;2023-03-25T04:35:23;97581.00;;;8.54;76.40
72587;BME280;60621;49.576;11.024;2023-03-25T04:36:27;97590.81;;;8.57;76.12
72587;BME280;60621;49.576;11.024;2023-03-25T04:37:38;97587.44;;;8.56;76.75
72587;BME280;60621;49.576;11.024;2023-03-25T04:38:41;97587.88;;;8.62;76.32
72587;BME280;60621;49.576;11.024;2023-03-25T04:39:46;97588.91;;;8.54;76.49
72587;BME280;60621;49.576;11.024;2023-03-25T04:40:47;97590.69;;;8.46;76.77
72587;BME280;60621;49.576;11.024;2023-03-25T04:41:49;97590.69;;;8.46;76.35
72587;BME280;60621;49.576;11.024;2023-03-25T04:42:51;97591.78;;;8.45;76.30
72587;BME280;60621;49.576;11.024;2023-03-25T04:43:53;97597.84;;;8.49;75.97
72587;BME280;60621;49.576;11.024;2023-03-25T04:44:55;97593.34;;;8.46;75.78
72587;BME280;60621;49.576;11.024;2023-03-25T04:45:57;97591.47;;;8.46;75.75
72587;BME280;60621;49.576;11.024;2023-03-25T04:47:01;97587.44;;;8.56;75.59
72587;BME280;60621;49.576;11.024;2023-03-25T04:48:02;97586.91;;;8.43;75.40
72587;BME280;60621;49.576;11.024;2023-03-25T04:49:06;97591.59;;;8.31;75.63
72587;BME280;60621;49.576;11.024;2023-03-25T04:50:23;97593.88;;;8.32;75.98
72587;BME280;60621;49.576;11.024;2023-03-25T04:51:25;97596.59;;;8.39;75.66
72587;BME280;60621;49.576;11.024;2023-03-25T04:52:27;97591.78;;;8.41;75.57
72587;BME280;60621;49.576;11.024;2023-03-25T04:53:29;97590.28;;;8.44;75.12
72587;BME280;60621;49.576;11.024;2023-03-25T04:54:30;97594.03;;;8.43;75.54
72587;BME280;60621;49.576;11.024;2023-03-25T04:55:32;97600.47;;;8.49;75.17
72587;BME280;60621;49.576;11.024;2023-03-25T04:56:34;97584.75;;;8.53;74.58
72587;BME280;60621;49.576;11.024;2023-03-25T04:57:37;97591.94;;;8.56;74.61
72587;BME280;60621;49.576;11.024;2023-03-25T04:58:38;97601.41;;;8.64;74.61
72587;BME280;60621;49.576;11.024;2023-03-25T04:59:41;97599.09;;;8.59;74.41
72587;BME280;60621;49.576;11.024;2023-03-25T05:00:44;97604.03;;;8.64;73.19
72587;BME280;60621;49.576;11.024;2023-03-25T05:01:46;97603.28;;;8.63;73.97
72587;BME280;60621;49.576;11.024;2023-03-25T05:02:50;97607.47;;;8.68;73.50
72587;BME280;60621;49.576;11.024;2023-03-25T05:03:52;97615.03;;;8.69;73.62
72587;BME280;60621;49.576;11.024;2023-03-25T05:04:54;97608.53;;;8.60;73.95
72587;BME280;60621;49.576;11.024;2023-03-25T05:06:02;97610.53;;;8.70;73.50
72587;BME280;60621;49.576;11.024;2023-03-25T05:07:04;97606.81;;;8.75;73.74
72587;BME280;60621;49.576;11.024;2023-03-25T05:08:06;97603.03;;;8.72;73.67
72587;BME280;60621;49.576;11.024;2023-03-25T05:09:11;97611.38;;;8.81;73.46
72587;BME280;60621;49.576;11.024;2023-03-25T05:10:13;97611.72;;;8.76;73.42
72587;BME280;60621;49.576;11.024;2023-03-25T05:11:14;97616.13;;;8.68;73.54
72587;BME280;60621;49.576;11.024;2023-03-25T05:12:16;97616.13;;;8.68;73.29
72587;BME280;60621;49.576;11.024;2023-03-25T05:13:18;97612.03;;;8.71;72.81
72587;BME280;60621;49.576;11.024;2023-03-25T05:14:20;97618.00;;;8.68;73.38
72587;BME280;60621;49.576;11.024;2023-03-25T05:15:22;97622.22;;;8.76;73.24
72587;BME280;60621;49.576;11.024;2023-03-25T05:16:24;97622.97;;;8.77;73.24
72587;BME280;60621;49.576;11.024;2023-03-25T05:17:27;97619.69;;;8.83;72.71
72587;BME280;60621;49.576;11.024;2023-03-25T05:18:30;97623.09;;;8.84;71.96
72587;BME280;60621;49.576;11.024;2023-03-25T05:19:31;97624.19;;;8.83;72.36
72587;BME280;60621;49.576;11.024;2023-03-25T05:20:36;97627.59;;;8.87;72.08
72587;BME280;60621;49.576;11.024;2023-03-25T05:21:40;97632.53;;;8.88;72.11
72587;BME280;60621;49.576;11.024;2023-03-25T05:22:42;97634.78;;;8.90;72.11
72587;BME280;60621;49.576;11.024;2023-03-25T05:23:46;97631.34;;;8.86;71.71
72587;BME280;60621;49.576;11.024;2023-03-25T05:24:47;97634.34;;;8.84;71.20
72587;BME280;60621;49.576;11.024;2023-03-25T05:25:50;97630.22;;;8.87;70.92
72587;BME280;60621;49.576;11.024;2023-03-25T05:26:52;97644.94;;;8.91;71.43
72587;BME280;60621;49.576;11.024;2023-03-25T05:27:55;97629.09;;;8.84;70.04
72587;BME280;60621;49.576;11.024;2023-03-25T05:28:56;97636.97;;;8.84;70.21
72587;BME280;60621;49.576;11.024;2023-03-25T05:30:02;97643.66;;;8.78;70.26
72587;BME280;60621;49.576;11.024;2023-03-25T05:31:04;97640.28;;;8.78;69.74
72587;BME280;60621;49.576;11.024;2023-03-25T05:33:15;97645.91;;;8.76;70.14
72587;BME280;60621;49.576;11.024;2023-03-25T05:34:17;97651.53;;;8.75;69.83
72587;BME280;60621;49.576;11.024;2023-03-25T05:35:20;97647.03;;;8.75;70.10
72587;BME280;60621;49.576;11.024;2023-03-25T05:36:23;97641.72;;;8.71;69.64
72587;BME280;60621;49.576;11.024;2023-03-25T05:37:28;97646.66;;;8.77;70.11
72587;BME280;60621;49.576;11.024;2023-03-25T05:38:30;97638.75;;;8.77;69.85
72587;BME280;60621;49.576;11.024;2023-03-25T05:39:33;97647.50;;;8.84;69.84
72587;BME280;60621;49.576;11.024;2023-03-25T05:40:37;97643.69;;;8.82;69.46
72587;BME280;60621;49.576;11.024;2023-03-25T05:41:43;97650.13;;;8.84;69.75
72587;BME280;60621;49.576;11.024;2023-03-25T05:42:46;97653.09;;;8.79;68.50
72587;BME280;60621;49.576;11.024;2023-03-25T05:43:49;97643.63;;;8.75;69.00
72587;BME280;60621;49.576;11.024;2023-03-25T05:44:52;97648.91;;;8.75;68.69
72587;BME280;60621;49.576;11.024;2023-03-25T05:45:54;97652.28;;;8.75;68.68
72587;BME280;60621;49.576;11.024;2023-03-25T05:46:55;97656.34;;;8.69;68.33
72587;BME280;60621;49.576;11.024;2023-03-25T05:47:59;97654.81;;;8.68;68.99
72587;BME280;60621;49.576;11.024;2023-03-25T05:49:01;97656.72;;;8.71;67.99
72587;BME280;60621;49.576;11.024;2023-03-25T05:50:03;97653.66;;;8.65;67.90
72587;BME280;60621;49.576;11.024;2023-03-25T05:51:05;97660.44;;;8.66;67.63
72587;BME280;60621;49.576;11.024;2023-03-25T05:52:07;97664.56;;;8.67;67.31
72587;BME280;60621;49.576;11.024;2023-03-25T05:53:13;97664.25;;;8.72;67.07
72587;BME280;60621;49.576;11.024;2023-03-25T05:54:18;97663.09;;;8.70;66.94
72587;BME280;60621;49.576;11.024;2023-03-25T05:55:21;97663.09;;;8.70;67.49
72587;BME280;60621;49.576;11.024;2023-03-25T05:56:23;97656.41;;;8.76;67.40
72587;BME280;60621;49.576;11.024;2023-03-25T05:57:26;97670.69;;;8.75;67.19
72587;BME280;60621;49.576;11.024;2023-03-25T05:58:27;97667.00;;;8.80;66.88
72587;BME280;60621;49.576;11.024;2023-03-25T05:59:29;97674.81;;;8.76;67.05
72587;BME280;60621;49.576;11.024;2023-03-25T06:00:31;97675.63;;;8.80;66.54
72587;BME280;60621;49.576;11.024;2023-03-25T06:01:35;97679.41;;;8.83;66.34
72587;BME280;60621;49.576;11.024;2023-03-25T06:03:02;97672.63;;;8.82;66.47
72587;BME280;60621;49.576;11.024;2023-03-25T06:04:42;97673.38;;;8.82;65.96
72587;BME280;60621;49.576;11.024;2023-03-25T06:05:43;97679.06;;;8.84;66.41
72587;BME280;60621;49.576;11.024;2023-03-25T06:06:45;97676.13;;;8.89;66.07
72587;BME280;60621;49.576;11.024;2023-03-25T06:07:46;97688.16;;;8.90;65.40
72587;BME280;60621;49.576;11.024;2023-03-25T06:08:49;97687.75;;;8.88;65.92
72587;BME280;60621;49.576;11.024;2023-03-25T06:09:50;97683.66;;;8.91;65.73
72587;BME280;60621;49.576;11.024;2023-03-25T06:10:55;97686.31;;;8.94;66.13
72587;BME280;60621;49.576;11.024;2023-03-25T06:11:58;97687.47;;;8.97;65.70
72587;BME280;60621;49.576;11.024;2023-03-25T06:13:02;97676.56;;;8.95;65.71
72587;BME280;60621;49.576;11.024;2023-03-25T06:14:05;97680.31;;;8.94;66.03
72587;BME280;60621;49.576;11.024;2023-03-25T06:15:08;97691.53;;;8.91;65.91
72587;BME280;60621;49.576;11.024;2023-03-25T06:16:10;97688.97;;;8.94;66.10
72587;BME280;60621;49.576;11.024;2023-03-25T06:17:13;97688.50;;;8.89;65.59